createdAt,value
2023-01-26T00:04:25.188Z,2.66
2023-01-26T00:09:47.040Z,2.63
2023-01-26T00:15:08.884Z,2.64
2023-01-26T00:20:30.642Z,2.46
2023-01-26T00:25:52.471Z,2.48
2023-01-26T00:31:19.495Z,2.59
2023-01-26T00:36:41.303Z,2.51
2023-01-26T00:42:13.801Z,2.50
2023-01-26T00:47:35.521Z,2.52
2023-01-26T00:52:57.319Z,2.51
2023-01-26T00:58:19.032Z,2.59
2023-01-26T01:03:40.778Z,2.40
2023-01-26T01:09:03.114Z,2.42
2023-01-26T01:14:25.111Z,2.23
2023-01-26T01:19:46.812Z,2.31
2023-01-26T01:25:08.949Z,2.28
2023-01-26T01:30:30.685Z,2.28
2023-01-26T01:36:03.460Z,2.23
2023-01-26T01:41:25.247Z,2.09
2023-01-26T01:47:02.322Z,2.00
2023-01-26T01:52:31.720Z,2.14
2023-01-26T01:57:58.757Z,2.02
2023-01-26T02:03:21.283Z,2.21
2023-01-26T02:08:42.968Z,2.31
2023-01-26T02:14:08.779Z,2.15
2023-01-26T02:19:46.060Z,2.07
2023-01-26T02:25:19.233Z,2.28
2023-01-26T02:30:40.975Z,2.16
2023-01-26T02:36:03.583Z,2.14
2023-01-26T02:41:44.655Z,2.10
2023-01-26T02:47:18.833Z,1.95
2023-01-26T02:52:40.644Z,1.67
2023-01-26T02:58:04.553Z,1.79
2023-01-26T03:03:41.684Z,1.71
2023-01-26T03:09:03.643Z,1.75
2023-01-26T03:14:25.344Z,1.72
2023-01-26T03:20:05.824Z,1.71
2023-01-26T03:25:45.933Z,1.90
2023-01-26T03:31:07.760Z,2.01
2023-01-26T03:36:29.466Z,1.96
2023-01-26T03:42:09.919Z,1.88
2023-01-26T03:47:51.782Z,1.87
2023-01-26T03:53:42.818Z,1.92
2023-01-26T03:59:12.277Z,1.75
2023-01-26T04:04:52.971Z,1.85
2023-01-26T04:10:15.037Z,1.64
2023-01-26T04:15:56.149Z,2.05
2023-01-26T04:21:26.701Z,2.09
2023-01-26T04:26:48.752Z,2.14
2023-01-26T04:32:10.515Z,1.98
2023-01-26T04:37:33.224Z,1.95
2023-01-26T04:42:54.930Z,1.87
2023-01-26T04:48:16.668Z,1.93
2023-01-26T04:53:38.441Z,1.79
2023-01-26T04:59:02.792Z,1.70
2023-01-26T05:04:24.589Z,1.94
2023-01-26T05:09:46.403Z,1.67
2023-01-26T05:15:08.421Z,1.51
2023-01-26T05:20:30.160Z,1.50
2023-01-26T05:25:51.936Z,1.58
2023-01-26T05:31:13.619Z,1.65
2023-01-26T05:36:35.329Z,1.63
2023-01-26T05:41:57.165Z,1.56
2023-01-26T05:47:19.785Z,1.42
2023-01-26T05:52:42.886Z,1.47
2023-01-26T05:58:04.586Z,1.60
2023-01-26T06:03:26.329Z,1.52
2023-01-26T06:08:48.023Z,1.66
2023-01-26T06:14:09.875Z,1.55
2023-01-26T06:19:31.683Z,1.46
2023-01-26T06:24:53.382Z,1.46
2023-01-26T06:30:15.834Z,1.39
2023-01-26T06:35:37.555Z,1.64
2023-01-26T06:41:03.075Z,1.44
2023-01-26T06:46:24.935Z,1.32
2023-01-26T06:51:50.380Z,1.42
2023-01-26T06:57:12.152Z,1.38
2023-01-26T07:02:34.054Z,1.24
2023-01-26T07:07:55.867Z,1.54
2023-01-26T07:13:17.627Z,1.38
2023-01-26T07:18:39.381Z,1.22
2023-01-26T07:24:01.188Z,1.26
2023-01-26T07:29:22.991Z,1.31
2023-01-26T07:34:44.699Z,1.30
2023-01-26T07:40:07.288Z,1.39
2023-01-26T07:45:29.039Z,1.28
2023-01-26T07:50:51.334Z,1.41
2023-01-26T07:56:16.548Z,1.30
2023-01-26T08:01:39.433Z,1.21
2023-01-26T08:07:01.409Z,1.34
2023-01-26T08:12:23.216Z,1.27
2023-01-26T08:17:44.942Z,1.37
2023-01-26T08:23:06.689Z,1.48
2023-01-26T08:28:28.872Z,1.50
2023-01-26T08:33:52.015Z,1.52
2023-01-26T08:39:13.798Z,1.62
2023-01-26T08:44:35.542Z,1.55
2023-01-26T08:49:57.279Z,1.58
2023-01-26T08:55:19.058Z,1.48
2023-01-26T09:00:40.804Z,1.41
2023-01-26T09:06:04.394Z,1.44
2023-01-26T09:11:26.210Z,1.47
2023-01-26T09:16:48.219Z,1.64
2023-01-26T09:22:10.019Z,1.60
2023-01-26T09:27:31.852Z,1.59
2023-01-26T09:32:58.643Z,1.79
2023-01-26T09:38:20.366Z,1.69
2023-01-26T09:43:50.489Z,1.56
2023-01-26T09:49:21.555Z,1.64
2023-01-26T09:54:49.432Z,1.70
2023-01-26T10:00:25.877Z,1.72
2023-01-26T10:06:07.494Z,1.62
2023-01-26T10:11:38.108Z,1.52
2023-01-26T10:17:02.814Z,1.60
2023-01-26T10:22:33.937Z,1.47
2023-01-26T10:27:55.768Z,1.69
2023-01-26T10:33:54.497Z,1.63
2023-01-26T10:39:17.802Z,1.77
2023-01-26T10:44:40.209Z,1.62
2023-01-26T10:50:23.161Z,1.68
2023-01-26T10:55:58.988Z,1.60
2023-01-26T11:01:28.198Z,1.65
2023-01-26T11:06:49.967Z,1.72
2023-01-26T11:12:19.162Z,1.61
2023-01-26T11:17:49.255Z,1.46
2023-01-26T11:23:24.608Z,1.67
2023-01-26T11:29:07.881Z,1.50
2023-01-26T11:34:41.400Z,1.44
2023-01-26T11:40:23.424Z,1.43
2023-01-26T11:45:50.919Z,1.23
2023-01-26T11:51:49.520Z,1.26
2023-01-26T11:57:37.327Z,1.22
2023-01-26T12:03:05.210Z,1.46
2023-01-26T12:08:39.376Z,1.37
2023-01-26T12:14:25.623Z,1.45
2023-01-26T12:20:11.441Z,1.43
2023-01-26T12:25:33.564Z,1.39
2023-01-26T12:31:14.311Z,1.61
2023-01-26T12:36:46.662Z,1.35
2023-01-26T12:42:29.754Z,1.49
2023-01-26T12:47:55.796Z,1.36
2023-01-26T12:53:47.990Z,1.51
2023-01-26T12:59:38.909Z,1.29
2023-01-26T13:05:00.128Z,1.53
2023-01-26T13:10:27.745Z,1.43
2023-01-26T13:16:15.588Z,1.52
2023-01-26T13:21:40.166Z,1.37
2023-01-26T13:27:01.931Z,1.35
2023-01-26T13:32:23.670Z,1.44
2023-01-26T13:37:53.258Z,1.28
2023-01-26T13:43:36.307Z,1.39
2023-01-26T13:48:58.069Z,1.29
2023-01-26T13:54:20.959Z,1.55
2023-01-26T13:59:54.729Z,1.29
2023-01-26T14:05:22.497Z,1.26
2023-01-26T14:10:44.287Z,1.26
2023-01-26T14:16:07.538Z,1.33
2023-01-26T14:21:29.384Z,1.38
2023-01-26T14:26:51.157Z,1.24
2023-01-26T14:32:16.448Z,1.43
2023-01-26T14:37:38.188Z,1.28
2023-01-26T14:43:00.214Z,1.24
2023-01-26T14:48:34.729Z,1.40
2023-01-26T14:54:18.878Z,1.61
2023-01-26T14:59:41.167Z,1.43
2023-01-26T15:05:14.264Z,1.60
2023-01-26T15:10:52.732Z,1.37
2023-01-26T15:16:20.109Z,1.20
2023-01-26T15:21:43.699Z,1.19
2023-01-26T15:27:06.734Z,1.37
2023-01-26T15:32:37.513Z,1.36
2023-01-26T15:38:11.612Z,1.35
2023-01-26T15:43:33.304Z,1.23
2023-01-26T15:48:55.891Z,1.26
2023-01-26T15:54:17.608Z,1.35
2023-01-26T15:59:40.180Z,1.33
2023-01-26T16:05:01.872Z,1.43
2023-01-26T16:10:23.623Z,1.43
2023-01-26T16:15:51.317Z,1.25
2023-01-26T16:21:20.162Z,1.31
2023-01-26T16:26:41.984Z,1.40
2023-01-26T16:32:16.126Z,1.18
2023-01-26T16:37:37.926Z,1.23
2023-01-26T16:43:01.467Z,1.33
2023-01-26T16:48:23.862Z,1.36
2023-01-26T16:53:46.600Z,1.32
2023-01-26T16:59:08.298Z,1.48
2023-01-26T17:04:30.034Z,1.47
2023-01-26T17:09:51.801Z,1.39
2023-01-26T17:15:14.034Z,1.27
2023-01-26T17:20:35.955Z,1.45
2023-01-26T17:25:59.375Z,1.30
2023-01-26T17:31:23.365Z,1.22
2023-01-26T17:36:46.126Z,1.36
2023-01-26T17:42:07.938Z,1.12
2023-01-26T17:47:33.509Z,1.14
2023-01-26T17:52:55.300Z,1.04
2023-01-26T17:58:17.040Z,1.11
2023-01-26T18:03:42.845Z,1.24
2023-01-26T18:09:05.807Z,1.25
2023-01-26T18:14:27.566Z,1.24
2023-01-26T18:19:49.308Z,0.97
2023-01-26T18:25:11.717Z,0.93
2023-01-26T18:30:33.746Z,0.74
2023-01-26T18:36:06.231Z,0.85
2023-01-26T18:41:30.575Z,0.96
2023-01-26T18:46:52.376Z,0.98
2023-01-26T18:52:14.074Z,0.99
2023-01-26T18:57:35.884Z,0.89
2023-01-26T19:02:57.595Z,0.97
2023-01-26T19:08:22.605Z,0.91
2023-01-26T19:13:46.469Z,0.98
2023-01-26T19:19:10.867Z,0.84
2023-01-26T19:24:32.677Z,0.73
2023-01-26T19:29:54.497Z,0.70
2023-01-26T19:35:18.198Z,0.87
2023-01-26T19:40:40.089Z,0.83
2023-01-26T19:46:02.647Z,0.76
2023-01-26T19:51:26.636Z,0.76
2023-01-26T19:56:48.389Z,0.77
2023-01-26T20:02:10.422Z,0.66
2023-01-26T20:07:32.242Z,0.60
2023-01-26T20:12:54.120Z,0.63
2023-01-26T20:18:15.883Z,0.70
2023-01-26T20:23:41.277Z,0.63
2023-01-26T20:29:11.976Z,0.73
2023-01-26T20:34:33.797Z,0.67
2023-01-26T20:39:55.673Z,0.46
2023-01-26T20:45:17.984Z,0.53
2023-01-26T20:50:40.717Z,0.62
2023-01-26T20:56:02.521Z,0.61
2023-01-26T21:01:25.387Z,0.54
2023-01-26T21:06:50.138Z,0.57
2023-01-26T21:12:12.384Z,0.44
2023-01-26T21:17:37.128Z,0.54
2023-01-26T21:22:59.616Z,0.36
2023-01-26T21:28:21.460Z,0.43
2023-01-26T21:33:45.906Z,0.59
2023-01-26T21:39:10.853Z,0.52
2023-01-26T21:44:33.219Z,0.54
2023-01-26T21:49:56.136Z,0.54
2023-01-26T21:55:20.151Z,0.59
2023-01-26T22:00:43.145Z,0.49
2023-01-26T22:06:05.554Z,0.55
2023-01-26T22:11:27.810Z,0.57
2023-01-26T22:16:50.079Z,0.46
2023-01-26T22:22:12.603Z,0.51
2023-01-26T22:27:34.382Z,0.45
2023-01-26T22:32:56.087Z,0.59
2023-01-26T22:38:18.225Z,0.45
2023-01-26T22:43:39.953Z,0.62
2023-01-26T22:49:04.443Z,0.60
2023-01-26T22:54:27.074Z,0.53
2023-01-26T22:59:49.322Z,0.45
2023-01-26T23:05:11.127Z,0.49
2023-01-26T23:10:32.973Z,0.36
2023-01-26T23:15:54.735Z,0.45
2023-01-26T23:21:16.500Z,0.36
2023-01-26T23:26:38.458Z,0.61
2023-01-26T23:32:00.237Z,0.59
2023-01-26T23:37:22.015Z,0.63
2023-01-26T23:43:00.250Z,0.68
2023-01-26T23:48:26.103Z,0.87
2023-01-26T23:53:47.865Z,0.73
2023-01-26T23:59:09.571Z,0.69
